createdAt,value
2022-11-20T00:01:54.362Z,7.88
2022-11-20T00:04:20.805Z,8.07
2022-11-20T00:06:47.826Z,8.48
2022-11-20T00:09:14.217Z,8.98
2022-11-20T00:11:40.695Z,8.43
2022-11-20T00:14:07.108Z,8.20
2022-11-20T00:16:34.064Z,8.13
2022-11-20T00:19:01.853Z,8.70
2022-11-20T00:21:30.452Z,8.02
2022-11-20T00:23:57.956Z,8.70
2022-11-20T00:26:26.821Z,8.27
2022-11-20T00:28:58.571Z,7.88
2022-11-20T00:31:25.542Z,8.27
2022-11-20T00:33:52.141Z,9.35
2022-11-20T00:36:20.644Z,7.73
2022-11-20T00:38:47.579Z,8.70
2022-11-20T00:41:16.763Z,8.43
2022-11-20T00:43:43.686Z,8.43
2022-11-20T00:46:12.760Z,8.32
2022-11-20T00:48:39.200Z,8.40
2022-11-20T00:51:05.861Z,8.90
2022-11-20T00:53:32.608Z,9.02
2022-11-20T00:56:01.367Z,8.38
2022-11-20T00:58:35.695Z,8.93
2022-11-20T01:01:10.567Z,9.00
2022-11-20T01:03:40.014Z,9.27
2022-11-20T01:06:10.870Z,8.25
2022-11-20T01:08:37.896Z,8.70
2022-11-20T01:11:10.431Z,8.80
2022-11-20T01:13:38.026Z,8.13
2022-11-20T01:16:17.860Z,8.60
2022-11-20T01:18:46.580Z,8.02
2022-11-20T01:21:21.520Z,8.23
2022-11-20T01:23:49.691Z,8.57
2022-11-20T01:26:21.230Z,8.80
2022-11-20T01:28:48.721Z,9.32
2022-11-20T01:31:16.789Z,9.13
2022-11-20T01:33:44.598Z,8.90
2022-11-20T01:36:12.135Z,8.40
2022-11-20T01:38:38.857Z,9.40
2022-11-20T01:41:06.460Z,8.82
2022-11-20T01:43:33.173Z,8.63
2022-11-20T01:46:03.583Z,9.15
2022-11-20T01:48:36.805Z,8.93
2022-11-20T01:51:04.910Z,9.03
2022-11-20T01:53:35.828Z,8.60
2022-11-20T01:56:06.574Z,9.30
2022-11-20T01:58:40.433Z,8.35
2022-11-20T02:01:06.975Z,8.60
2022-11-20T02:03:33.595Z,8.77
2022-11-20T02:06:15.913Z,8.90
2022-11-20T02:08:42.613Z,8.98
2022-11-20T02:11:09.348Z,9.10
2022-11-20T02:13:36.029Z,8.90
2022-11-20T02:16:04.121Z,9.03
2022-11-20T02:18:31.311Z,8.90
2022-11-20T02:21:06.643Z,8.75
2022-11-20T02:23:43.177Z,9.00
2022-11-20T02:26:14.166Z,8.93
2022-11-20T02:28:40.641Z,9.57
2022-11-20T02:31:07.215Z,8.52
2022-11-20T02:33:33.603Z,9.95
2022-11-20T02:36:00.032Z,9.45
2022-11-20T02:38:26.663Z,8.98
2022-11-20T02:40:55.697Z,8.50
2022-11-20T02:43:23.257Z,8.98
2022-11-20T02:45:49.626Z,9.43
2022-11-20T02:48:16.005Z,8.88
2022-11-20T02:50:42.463Z,10.10
2022-11-20T02:53:09.045Z,9.03
2022-11-20T02:55:36.098Z,9.15
2022-11-20T02:58:02.614Z,9.77
2022-11-20T03:00:29.139Z,9.15
2022-11-20T03:02:55.555Z,9.50
2022-11-20T03:05:21.955Z,9.77
2022-11-20T03:07:48.339Z,9.20
2022-11-20T03:10:14.933Z,9.20
2022-11-20T03:12:41.363Z,10.00
2022-11-20T03:15:08.281Z,9.48
2022-11-20T03:17:34.709Z,9.80
2022-11-20T03:20:01.095Z,9.88
2022-11-20T03:22:30.391Z,9.55
2022-11-20T03:24:56.844Z,9.25
2022-11-20T03:27:23.268Z,10.32
2022-11-20T03:29:49.660Z,10.10
2022-11-20T03:32:16.132Z,9.48
2022-11-20T03:34:42.547Z,10.50
2022-11-20T03:37:09.000Z,9.88
2022-11-20T03:39:35.401Z,10.23
2022-11-20T03:42:01.767Z,10.17
2022-11-20T03:44:28.189Z,9.98
2022-11-20T03:46:54.589Z,10.07
2022-11-20T03:49:21.231Z,9.32
2022-11-20T03:51:48.635Z,10.02
2022-11-20T03:54:15.142Z,9.73
2022-11-20T03:56:41.566Z,10.32
2022-11-20T03:59:11.086Z,9.95
2022-11-20T04:01:37.916Z,10.27
2022-11-20T04:04:04.772Z,10.57
2022-11-20T04:06:35.849Z,10.40
2022-11-20T04:09:02.493Z,10.40
2022-11-20T04:11:31.548Z,10.88
2022-11-20T04:14:00.347Z,9.98
2022-11-20T04:16:27.673Z,10.30
2022-11-20T04:18:55.833Z,9.97
2022-11-20T04:21:23.047Z,10.27
2022-11-20T04:23:50.270Z,10.88
2022-11-20T04:26:16.686Z,10.95
2022-11-20T04:28:43.236Z,10.65
2022-11-20T04:31:13.065Z,10.37
2022-11-20T04:33:39.960Z,10.68
2022-11-20T04:36:11.132Z,10.75
2022-11-20T04:38:37.606Z,10.80
2022-11-20T04:41:06.966Z,10.98
2022-11-20T04:43:34.371Z,11.20
2022-11-20T04:46:01.848Z,11.48
2022-11-20T04:48:30.464Z,11.02
2022-11-20T04:50:57.140Z,11.10
2022-11-20T04:53:24.509Z,10.95
2022-11-20T04:55:50.939Z,11.77
2022-11-20T04:58:17.455Z,10.90
2022-11-20T05:00:43.875Z,11.38
2022-11-20T05:03:10.279Z,11.50
2022-11-20T05:05:36.685Z,11.27
2022-11-20T05:08:03.231Z,12.13
2022-11-20T05:10:29.608Z,11.68
2022-11-20T05:12:56.003Z,11.93
2022-11-20T05:15:22.430Z,11.85
2022-11-20T05:17:53.296Z,11.48
2022-11-20T05:20:20.522Z,11.40
2022-11-20T05:22:46.948Z,11.75
2022-11-20T05:25:13.623Z,12.07
2022-11-20T05:27:40.073Z,11.02
2022-11-20T05:30:07.692Z,12.10
2022-11-20T05:32:34.198Z,11.37
2022-11-20T05:35:00.625Z,11.90
2022-11-20T05:37:27.031Z,11.52
2022-11-20T05:39:53.474Z,11.45
2022-11-20T05:42:19.847Z,11.70
2022-11-20T05:44:46.344Z,12.13
2022-11-20T05:47:12.723Z,12.20
2022-11-20T05:49:39.159Z,11.63
2022-11-20T05:52:05.572Z,12.40
2022-11-20T05:54:32.156Z,11.88
2022-11-20T05:56:58.568Z,11.63
2022-11-20T05:59:25.010Z,12.13
2022-11-20T06:01:51.427Z,12.30
2022-11-20T06:04:17.835Z,11.70
2022-11-20T06:06:44.296Z,11.50
2022-11-20T06:09:10.743Z,12.67
2022-11-20T06:11:37.167Z,12.90
2022-11-20T06:14:03.591Z,12.43
2022-11-20T06:16:30.043Z,12.02
2022-11-20T06:18:56.532Z,12.45
2022-11-20T06:21:23.740Z,14.73
2022-11-20T06:23:51.471Z,11.85
2022-11-20T06:26:20.795Z,12.50
2022-11-20T06:28:47.286Z,12.82
2022-11-20T06:31:16.227Z,13.15
2022-11-20T06:33:44.054Z,13.07
2022-11-20T06:36:12.668Z,12.90
2022-11-20T06:38:39.736Z,13.60
2022-11-20T06:41:07.258Z,13.10
2022-11-20T06:43:33.807Z,12.50
2022-11-20T06:46:00.712Z,12.97
2022-11-20T06:48:28.288Z,14.20
2022-11-20T06:50:54.774Z,14.40
2022-11-20T06:53:22.246Z,14.07
2022-11-20T06:55:49.447Z,13.95
2022-11-20T06:58:17.530Z,14.77
2022-11-20T07:00:44.233Z,14.75
2022-11-20T07:03:12.791Z,14.43
2022-11-20T07:05:39.919Z,13.80
2022-11-20T07:08:06.749Z,12.32
2022-11-20T07:10:34.143Z,13.73
2022-11-20T07:13:00.765Z,12.60
2022-11-20T07:15:27.508Z,13.23
2022-11-20T07:17:53.968Z,14.15
2022-11-20T07:20:20.524Z,13.40
2022-11-20T07:22:47.015Z,14.60
2022-11-20T07:25:13.461Z,15.05
2022-11-20T07:27:39.870Z,14.07
2022-11-20T07:30:06.893Z,15.70
2022-11-20T07:32:33.337Z,14.80
2022-11-20T07:34:59.733Z,14.47
2022-11-20T07:37:26.112Z,15.65
2022-11-20T07:39:52.537Z,15.55
2022-11-20T07:42:19.019Z,15.57
2022-11-20T07:44:45.503Z,16.83
2022-11-20T07:47:11.952Z,15.57
2022-11-20T07:49:38.394Z,15.55
2022-11-20T07:52:05.515Z,15.73
2022-11-20T07:54:31.991Z,15.20
2022-11-20T07:56:58.393Z,14.90
2022-11-20T07:59:24.823Z,15.60
2022-11-20T08:01:51.241Z,15.50
2022-11-20T08:04:17.744Z,15.68
2022-11-20T08:06:44.181Z,16.73
2022-11-20T08:09:10.697Z,17.10
2022-11-20T08:11:37.130Z,17.17
2022-11-20T08:14:04.034Z,16.13
2022-11-20T08:16:30.791Z,16.35
2022-11-20T08:18:57.275Z,16.17
2022-11-20T08:21:23.697Z,15.60
2022-11-20T08:23:50.172Z,15.60
2022-11-20T08:26:16.642Z,16.73
2022-11-20T08:28:43.097Z,17.15
2022-11-20T08:31:09.657Z,18.02
2022-11-20T08:33:36.427Z,17.38
2022-11-20T08:36:04.373Z,16.87
2022-11-20T08:38:31.776Z,16.10
2022-11-20T08:41:02.545Z,16.27
2022-11-20T08:43:28.938Z,16.85
2022-11-20T08:45:57.885Z,17.27
2022-11-20T08:48:24.355Z,16.17
2022-11-20T08:50:50.769Z,18.70
2022-11-20T08:53:17.211Z,17.95
2022-11-20T08:55:43.772Z,19.33
2022-11-20T08:58:10.240Z,19.23
2022-11-20T09:00:36.668Z,18.93
2022-11-20T09:03:03.160Z,20.10
2022-11-20T09:05:29.757Z,17.95
2022-11-20T09:08:00.422Z,19.88
2022-11-20T09:10:27.657Z,20.38
2022-11-20T09:12:54.756Z,22.60
2022-11-20T09:15:21.605Z,26.17
2022-11-20T09:17:55.394Z,23.10
2022-11-20T09:20:22.531Z,21.00
2022-11-20T09:22:49.397Z,23.10
2022-11-20T09:25:15.910Z,20.57
2022-11-20T09:27:42.354Z,19.42
2022-11-20T09:30:09.219Z,23.30
2022-11-20T09:32:35.633Z,19.50
2022-11-20T09:35:02.449Z,19.25
2022-11-20T09:37:29.418Z,23.30
2022-11-20T09:39:55.828Z,22.58
2022-11-20T09:42:31.261Z,21.40
2022-11-20T09:45:31.434Z,27.48
2022-11-20T09:48:25.970Z,24.95
2022-11-20T09:51:25.712Z,20.37
2022-11-20T09:54:08.604Z,21.90
2022-11-20T09:56:40.429Z,22.45
2022-11-20T09:59:15.304Z,27.08
2022-11-20T10:01:41.723Z,19.63
2022-11-20T10:04:18.930Z,23.20
2022-11-20T10:07:10.583Z,20.02
2022-11-20T10:09:44.579Z,20.25
2022-11-20T10:12:24.695Z,20.35
2022-11-20T10:14:59.836Z,20.65
2022-11-20T10:18:08.619Z,21.30
2022-11-20T10:20:49.628Z,20.67
2022-11-20T10:23:34.027Z,19.90
2022-11-20T10:26:13.612Z,21.00
2022-11-20T10:28:40.043Z,19.67
2022-11-20T10:31:15.406Z,19.30
2022-11-20T10:34:10.572Z,20.15
2022-11-20T10:36:44.743Z,22.42
2022-11-20T10:39:57.022Z,21.42
2022-11-20T10:42:32.946Z,22.48
2022-11-20T10:45:12.315Z,21.27
2022-11-20T10:47:38.768Z,21.83
2022-11-20T10:50:10.945Z,21.42
2022-11-20T10:52:43.382Z,21.30
2022-11-20T10:55:43.461Z,23.02
2022-11-20T10:58:29.508Z,23.17
2022-11-20T11:01:16.860Z,24.35
2022-11-20T11:03:43.654Z,22.35
2022-11-20T11:06:22.355Z,24.00
2022-11-20T11:08:51.320Z,26.58
2022-11-20T11:11:29.730Z,25.93
2022-11-20T11:14:16.594Z,22.90
2022-11-20T11:16:57.536Z,25.70
2022-11-20T11:19:25.011Z,24.73
2022-11-20T11:21:55.771Z,27.08
2022-11-20T11:24:41.117Z,23.97
2022-11-20T11:27:17.136Z,24.42
2022-11-20T11:29:44.410Z,24.35
2022-11-20T11:32:23.608Z,25.33
2022-11-20T11:35:05.652Z,24.98
2022-11-20T11:37:37.340Z,25.97
2022-11-20T11:40:27.311Z,22.63
2022-11-20T11:42:59.930Z,23.98
2022-11-20T11:45:27.252Z,25.63
2022-11-20T11:47:56.751Z,27.38
2022-11-20T11:50:25.929Z,25.20
2022-11-20T11:53:10.074Z,25.20
2022-11-20T11:55:41.565Z,23.38
2022-11-20T11:58:08.104Z,24.02
2022-11-20T12:00:38.574Z,23.40
2022-11-20T12:03:16.036Z,25.33
2022-11-20T12:05:58.649Z,23.38
2022-11-20T12:08:54.885Z,25.75
2022-11-20T12:11:32.222Z,24.33
2022-11-20T12:14:27.242Z,23.90
2022-11-20T12:16:54.440Z,23.70
2022-11-20T12:19:21.423Z,23.90
2022-11-20T12:22:02.000Z,22.83
2022-11-20T12:25:01.744Z,23.00
2022-11-20T12:27:37.328Z,24.50
2022-11-20T12:30:13.714Z,23.47
2022-11-20T12:33:04.269Z,24.27
2022-11-20T12:35:37.050Z,24.85
2022-11-20T12:38:03.446Z,27.25
2022-11-20T12:40:41.418Z,23.77
2022-11-20T12:43:19.813Z,25.50
2022-11-20T12:46:09.429Z,24.20
2022-11-20T12:49:00.564Z,23.52
2022-11-20T12:52:02.045Z,23.98
2022-11-20T12:54:42.285Z,22.00
2022-11-20T12:57:17.758Z,24.70
2022-11-20T12:59:52.882Z,23.90
2022-11-20T13:02:47.560Z,24.13
2022-11-20T13:05:33.868Z,25.63
2022-11-20T13:08:03.015Z,23.83
2022-11-20T13:10:47.149Z,23.00
2022-11-20T13:13:24.577Z,23.70
2022-11-20T13:16:11.618Z,22.83
2022-11-20T13:18:42.461Z,26.58
2022-11-20T13:21:38.429Z,32.45
2022-11-20T13:24:06.594Z,24.17
2022-11-20T13:26:33.150Z,26.90
2022-11-20T13:29:29.270Z,27.13
2022-11-20T13:32:07.783Z,27.63
2022-11-20T13:34:36.464Z,27.40
2022-11-20T13:37:03.097Z,30.17
2022-11-20T13:39:32.302Z,29.65
2022-11-20T13:42:12.536Z,28.23
2022-11-20T13:44:43.591Z,30.70
2022-11-20T13:47:29.849Z,29.63
2022-11-20T13:49:59.130Z,31.03
2022-11-20T13:52:50.363Z,28.98
2022-11-20T13:55:24.779Z,31.00
2022-11-20T13:58:08.096Z,28.42
2022-11-20T14:00:34.762Z,29.02
2022-11-20T14:03:07.400Z,30.07
2022-11-20T14:05:47.005Z,28.73
2022-11-20T14:08:24.710Z,30.67
2022-11-20T14:10:51.124Z,31.33
2022-11-20T14:13:21.676Z,30.55
2022-11-20T14:15:48.111Z,28.33
2022-11-20T14:18:20.468Z,29.80
2022-11-20T14:20:47.644Z,31.77
2022-11-20T14:23:29.962Z,29.52
2022-11-20T14:25:57.385Z,32.53
2022-11-20T14:28:31.763Z,30.87
2022-11-20T14:30:58.700Z,29.73
2022-11-20T14:33:27.440Z,31.75
2022-11-20T14:35:56.738Z,29.90
2022-11-20T14:38:29.718Z,32.38
2022-11-20T14:41:07.341Z,30.67
2022-11-20T14:43:33.777Z,28.48
2022-11-20T14:46:05.911Z,27.15
2022-11-20T14:48:57.874Z,28.98
2022-11-20T14:51:40.967Z,27.83
2022-11-20T14:54:10.446Z,25.43
2022-11-20T14:56:36.860Z,23.00
2022-11-20T14:59:03.362Z,23.63
2022-11-20T15:01:31.540Z,26.10
2022-11-20T15:04:12.007Z,25.02
2022-11-20T15:06:49.595Z,22.80
2022-11-20T15:09:16.301Z,20.73
2022-11-20T15:11:55.527Z,20.38
2022-11-20T15:14:22.708Z,20.17
2022-11-20T15:16:49.552Z,18.77
2022-11-20T15:19:24.843Z,17.83
2022-11-20T15:21:51.865Z,17.52
2022-11-20T15:24:18.685Z,18.23
2022-11-20T15:26:45.835Z,17.73
2022-11-20T15:29:14.252Z,16.63
2022-11-20T15:31:41.026Z,15.37
2022-11-20T15:34:13.701Z,14.70
2022-11-20T15:36:41.162Z,13.35
2022-11-20T15:39:08.310Z,15.20
2022-11-20T15:41:38.049Z,13.82
2022-11-20T15:44:05.523Z,15.10
2022-11-20T15:46:37.005Z,14.15
2022-11-20T15:49:03.462Z,12.52
2022-11-20T15:51:39.664Z,14.15
2022-11-20T15:54:18.233Z,15.35
2022-11-20T15:56:44.782Z,15.43
2022-11-20T15:59:11.256Z,17.40
2022-11-20T16:01:37.733Z,15.85
2022-11-20T16:04:06.352Z,17.40
2022-11-20T16:06:32.758Z,18.48
2022-11-20T16:08:59.189Z,18.57
2022-11-20T16:11:25.637Z,19.27
2022-11-20T16:13:52.077Z,19.83
2022-11-20T16:16:29.352Z,20.70
2022-11-20T16:18:55.814Z,21.30
2022-11-20T16:21:22.283Z,20.80
2022-11-20T16:23:48.747Z,17.67
2022-11-20T16:26:17.442Z,17.42
2022-11-20T16:28:44.582Z,14.27
2022-11-20T16:31:17.069Z,11.32
2022-11-20T16:33:43.619Z,8.97
2022-11-20T16:36:12.238Z,8.35
2022-11-20T16:38:38.697Z,6.57
2022-11-20T16:41:06.019Z,4.68
2022-11-20T16:43:32.810Z,6.47
2022-11-20T16:45:59.321Z,6.40
2022-11-20T16:48:25.842Z,7.30
2022-11-20T16:50:53.889Z,6.65
2022-11-20T16:53:22.114Z,8.07
2022-11-20T16:55:48.926Z,8.27
2022-11-20T16:58:15.696Z,5.77
2022-11-20T17:00:46.905Z,5.22
2022-11-20T17:03:16.746Z,5.30
2022-11-20T17:05:43.229Z,6.05
2022-11-20T17:08:09.702Z,6.88
2022-11-20T17:10:36.154Z,6.70
2022-11-20T17:13:02.588Z,8.75
2022-11-20T17:15:29.124Z,7.65
2022-11-20T17:17:55.555Z,10.02
2022-11-20T17:20:22.037Z,7.45
2022-11-20T17:22:48.493Z,11.07
2022-11-20T17:25:14.970Z,11.05
2022-11-20T17:27:41.401Z,9.48
2022-11-20T17:30:08.441Z,10.27
2022-11-20T17:32:34.869Z,9.77
2022-11-20T17:35:01.314Z,9.80
2022-11-20T17:37:27.760Z,9.57
2022-11-20T17:39:54.186Z,10.60
2022-11-20T17:42:20.649Z,11.15
2022-11-20T17:44:47.067Z,9.70
2022-11-20T17:47:13.462Z,11.03
2022-11-20T17:49:39.923Z,11.85
2022-11-20T17:52:06.306Z,11.32
2022-11-20T17:54:32.702Z,11.65
2022-11-20T17:56:59.141Z,11.18
2022-11-20T17:59:25.983Z,11.43
2022-11-20T18:01:52.537Z,11.40
2022-11-20T18:04:19.012Z,11.23
2022-11-20T18:06:45.467Z,12.05
2022-11-20T18:09:13.198Z,11.80
2022-11-20T18:11:41.584Z,12.90
2022-11-20T18:14:13.544Z,49.35
2022-11-20T18:16:42.662Z,23.20
2022-11-20T18:19:14.315Z,18.38
2022-11-20T18:21:40.816Z,14.75
2022-11-20T18:24:08.085Z,13.43
2022-11-20T18:26:36.792Z,13.80
2022-11-20T18:29:07.572Z,47.95
2022-11-20T18:31:34.294Z,15.27
2022-11-20T18:34:00.708Z,16.92
2022-11-20T18:36:29.911Z,16.33
2022-11-20T18:38:58.887Z,16.67
2022-11-20T18:41:30.650Z,16.67
2022-11-20T18:43:57.713Z,13.35
2022-11-20T18:46:24.145Z,11.40
2022-11-20T18:48:50.551Z,13.57
2022-11-20T18:51:16.995Z,11.15
2022-11-20T18:53:47.309Z,24.15
2022-11-20T18:56:14.195Z,11.30
2022-11-20T18:58:41.222Z,11.15
2022-11-20T19:01:08.200Z,10.67
2022-11-20T19:03:34.797Z,11.60
2022-11-20T19:06:01.297Z,14.15
2022-11-20T19:08:27.797Z,11.30
2022-11-20T19:10:54.269Z,8.77
2022-11-20T19:13:20.742Z,10.40
2022-11-20T19:15:47.642Z,12.52
2022-11-20T19:18:14.141Z,7.20
2022-11-20T19:20:40.655Z,6.30
2022-11-20T19:23:07.131Z,4.97
2022-11-20T19:25:37.923Z,5.00
2022-11-20T19:28:05.084Z,5.50
2022-11-20T19:30:32.678Z,4.30
2022-11-20T19:32:59.102Z,3.60
2022-11-20T19:35:25.545Z,3.22
2022-11-20T19:37:51.979Z,3.20
2022-11-20T19:40:18.450Z,3.67
2022-11-20T19:42:44.901Z,3.03
2022-11-20T19:45:11.301Z,3.10
2022-11-20T19:48:07.237Z,9.02
2022-11-20T19:50:24.226Z,16.17
2022-11-20T19:52:54.452Z,8.57
2022-11-20T19:55:24.893Z,7.72
2022-11-20T19:57:51.544Z,8.95
2022-11-20T20:00:25.607Z,7.30
2022-11-20T20:02:57.481Z,6.80
2022-11-20T20:05:23.965Z,4.97
2022-11-20T20:07:50.452Z,4.65
2022-11-20T20:10:16.986Z,3.80
2022-11-20T20:12:43.600Z,4.00
2022-11-20T20:15:10.082Z,4.17
2022-11-20T20:17:36.670Z,4.20
2022-11-20T20:20:03.538Z,4.60
2022-11-20T20:22:29.964Z,5.80
2022-11-20T20:24:56.374Z,4.35
2022-11-20T20:27:22.846Z,4.50
2022-11-20T20:29:49.286Z,5.38
2022-11-20T20:32:15.680Z,5.72
2022-11-20T20:34:42.108Z,3.90
2022-11-20T20:37:08.562Z,4.10
2022-11-20T20:39:34.987Z,3.67
2022-11-20T20:42:01.394Z,4.22
2022-11-20T20:44:27.774Z,2.80
2022-11-20T20:46:54.170Z,2.50
2022-11-20T20:49:20.580Z,3.10
2022-11-20T20:51:47.004Z,3.60
2022-11-20T20:54:13.419Z,3.90
2022-11-20T20:56:39.909Z,4.05
2022-11-20T20:59:06.382Z,2.33
2022-11-20T21:01:32.848Z,2.30
2022-11-20T21:03:59.261Z,3.03
2022-11-20T21:06:26.073Z,2.50
2022-11-20T21:08:53.009Z,3.08
2022-11-20T21:11:20.632Z,2.88
2022-11-20T21:13:48.149Z,2.70
2022-11-20T21:16:16.174Z,1.93
2022-11-20T21:18:42.614Z,2.40
2022-11-20T21:21:13.185Z,2.20
2022-11-20T21:23:39.759Z,2.63
2022-11-20T21:26:08.569Z,2.20
2022-11-20T21:28:36.378Z,2.47
2022-11-20T21:31:04.141Z,2.63
2022-11-20T21:34:01.591Z,2.60
2022-11-20T21:36:30.142Z,3.08
2022-11-20T21:38:58.213Z,2.80
2022-11-20T21:41:27.025Z,2.90
2022-11-20T21:44:29.067Z,2.38
2022-11-20T21:46:43.314Z,2.85
2022-11-20T21:49:10.504Z,2.70
2022-11-20T21:51:37.337Z,3.00
2022-11-20T21:54:03.862Z,3.50
2022-11-20T21:56:30.262Z,2.45
2022-11-20T21:58:56.704Z,2.28
2022-11-20T22:01:26.113Z,2.35
2022-11-20T22:03:55.089Z,2.85
2022-11-20T22:06:21.539Z,3.07
2022-11-20T22:08:48.409Z,3.10
2022-11-20T22:11:17.496Z,3.35
2022-11-20T22:13:44.270Z,3.47
2022-11-20T22:16:11.112Z,2.95
2022-11-20T22:18:42.792Z,3.10
2022-11-20T22:21:09.238Z,2.92
2022-11-20T22:23:36.302Z,3.03
2022-11-20T22:26:14.690Z,2.97
2022-11-20T22:28:41.653Z,2.60
2022-11-20T22:31:10.753Z,2.70
2022-11-20T22:33:39.131Z,3.08
2022-11-20T22:36:08.289Z,3.22
2022-11-20T22:38:39.273Z,3.28
2022-11-20T22:41:11.883Z,2.80
2022-11-20T22:43:39.297Z,4.10
2022-11-20T22:46:13.009Z,3.97
2022-11-20T22:48:48.669Z,3.40
2022-11-20T22:51:16.558Z,3.80
2022-11-20T22:53:43.902Z,4.05
2022-11-20T22:56:12.516Z,3.93
2022-11-20T22:58:40.722Z,3.70
2022-11-20T23:01:15.324Z,4.18
2022-11-20T23:03:43.956Z,3.10
2022-11-20T23:06:11.343Z,3.70
2022-11-20T23:08:39.556Z,4.07
2022-11-20T23:11:09.552Z,4.05
2022-11-20T23:13:36.922Z,2.95
2022-11-20T23:16:06.521Z,2.40
2022-11-20T23:18:33.889Z,3.38
2022-11-20T23:21:08.232Z,2.50
2022-11-20T23:23:34.665Z,2.28
2022-11-20T23:26:09.382Z,2.20
2022-11-20T23:28:35.935Z,3.25
2022-11-20T23:31:02.837Z,3.40
2022-11-20T23:33:29.365Z,2.50
2022-11-20T23:35:55.815Z,3.53
2022-11-20T23:38:22.818Z,3.35
2022-11-20T23:40:50.773Z,3.03
2022-11-20T23:43:19.164Z,3.45
2022-11-20T23:45:50.998Z,3.83
2022-11-20T23:48:18.594Z,2.63
2022-11-20T23:50:45.885Z,2.50
2022-11-20T23:53:13.246Z,2.28
2022-11-20T23:55:43.715Z,2.50
2022-11-20T23:58:10.369Z,3.20
